Etusivu
METAR-TAF:

METAR-TAF

Lentoasemat :

Funafuti, Tuvalu

Funafutin kansainvälinen lentoasema

Leveyspiiri: 08-31S, Pituuspiiri: 179-13E, korkeus merenpinnasta: 1 m

Tämänhetkinen sää

Tämä raportti tehtiin 12 minuuttia sitten, kello 01.00 UTC
Tuuli 1 kn eri suunnista
Lämpötila 31°C
Kosteus 71%
Ilmanpaine 1009 hPa
Näkyvyys 10 km tai enemmän
Hajanaisia pilviä 2000 ft:n korkeudessa

METAR: NGFU 250100Z VRB01KT 9999 SCT020 31/25 Q1009

Aika: 13:12 (01:12 UTC)

Sääennuste

Tämä raportti tehtiin 2 tuntia ja 9 minuuttia sitten, kello 23.03 UTC
Ennuste voimassa 25. päivästä klo 00 UTC - 25. päivään klo 24 UTC
Tuuli 3 kn eri suunnista
Näkyvyys 10 km tai enemmän
Hajanaisia pilviä 1800 ft:n korkeudessa

TAF: NGFU 242303Z 2500/2524 VRB03KT 9999 SCT018

Säähavainnot ja -ennusteet yli 4000 lentoasemalta (METAR- ja TAF-raportit).

Käytössä olevat sääasemat on merkitty karttaan keltaisilla ja punaisilla pisteillä.

Aseta hiiri pisteen päälle nähdäksesi sääaseman nimen.

Klikkaa sitten nähdäksesi säähavainnot ja -ennusteet.

Kartan vaihtaminen: klikkaa mustalla rastilla varustettuja vihreitä pisteitä, niin voit zoomata sisään; viivalla varustettua vihreää pistettä, niin voit zoomata ulos tai vihreitä nuolia, niin pääset viereisille kartoille.


METAR-TAF: